Time;durP1;ratioP1;P1;durP2;ratioP2;P2;SDS_P1;SDS_P2;PMS_P1;PMS_P2;Temp;Humidity;BMP_temperature;BMP_pressure;BME280_temperature;BME280_humidity;BME280_pressure;Samples;Min_cycle;Max_cycle;Signal;HPM_P1;HPM_P2
2022/07/27 00:02:23;;;;;;;2.80;0.73;;;23.70;54.10;;;;;;4509258;31;20083;-67
2022/07/27 00:04:49;;;;;;;1.58;0.68;;;23.70;54.10;;;;;;4495022;31;20084;-67
2022/07/27 00:07:14;;;;;;;1.00;0.40;;;23.70;54.10;;;;;;4509182;31;20582;-67
2022/07/27 00:09:40;;;;;;;2.53;1.05;;;23.70;54.10;;;;;;4494825;31;20065;-68
2022/07/27 00:12:06;;;;;;;2.67;0.88;;;23.70;54.10;;;;;;4494461;31;20249;-67
2022/07/27 00:14:32;;;;;;;2.05;0.68;;;23.70;54.10;;;;;;4509082;31;20065;-67
2022/07/27 00:16:58;;;;;;;2.15;0.70;;;23.70;54.10;;;;;;4508719;31;20228;-67
2022/07/27 00:19:24;;;;;;;1.88;0.70;;;23.70;54.10;;;;;;4494420;31;20065;-67
2022/07/27 00:21:50;;;;;;;2.00;0.77;;;23.70;54.10;;;;;;4508906;31;20498;-67
2022/07/27 00:24:15;;;;;;;2.63;0.77;;;23.70;54.10;;;;;;4508870;31;20080;-67
2022/07/27 00:26:41;;;;;;;1.25;0.60;;;23.70;54.10;;;;;;4508838;31;20150;-68
2022/07/27 00:29:07;;;;;;;1.42;0.60;;;23.70;54.20;;;;;;4508904;31;20069;-67
2022/07/27 00:31:33;;;;;;;3.53;0.68;;;23.70;54.20;;;;;;4509004;31;20057;-67
2022/07/27 00:34:00;;;;;;;2.25;0.70;;;23.70;54.20;;;;;;4493455;31;20084;-67
2022/07/27 00:36:25;;;;;;;1.25;0.60;;;23.60;54.20;;;;;;4494528;31;20061;-68
2022/07/27 00:38:51;;;;;;;1.27;0.60;;;23.70;54.20;;;;;;4508606;31;20056;-67
2022/07/27 00:41:17;;;;;;;1.73;0.70;;;23.60;54.20;;;;;;4494439;31;20382;-67
2022/07/27 00:43:58;;;;;;;1.98;0.60;;;23.70;54.30;;;;;;4508333;31;20505;-68
2022/07/27 00:46:25;;;;;;;1.60;0.45;;;23.60;54.20;;;;;;4508598;31;20085;-67
2022/07/27 00:48:52;;;;;;;1.90;0.70;;;23.60;54.20;;;;;;4508226;31;20100;-67
2022/07/27 00:51:19;;;;;;;2.22;0.80;;;23.60;54.20;;;;;;4508131;31;20213;-67
2022/07/27 00:53:46;;;;;;;1.10;0.50;;;23.60;54.30;;;;;;4508487;31;20092;-67
2022/07/27 00:56:13;;;;;;;2.20;0.77;;;23.60;54.30;;;;;;4508420;31;20092;-67
2022/07/27 00:58:39;;;;;;;0.90;0.40;;;23.60;54.30;;;;;;4508096;31;20077;-67
2022/07/27 01:01:05;;;;;;;1.80;0.60;;;23.60;54.30;;;;;;4493818;31;20084;-67
2022/07/27 01:03:31;;;;;;;2.13;0.82;;;23.60;54.30;;;;;;4508345;31;20090;-68
2022/07/27 01:05:58;;;;;;;2.28;0.60;;;23.60;54.30;;;;;;4508508;31;20227;-67
2022/07/27 01:08:24;;;;;;;0.95;0.60;;;23.60;54.30;;;;;;4507917;31;20073;-67
2022/07/27 01:10:53;;;;;;;2.75;0.68;;;23.60;54.40;;;;;;4508126;31;20161;-67
2022/07/27 01:13:20;;;;;;;2.53;0.60;;;23.60;54.30;;;;;;4508253;31;20414;-67
2022/07/27 01:15:47;;;;;;;1.80;0.68;;;23.60;54.40;;;;;;4507887;31;20084;-67
2022/07/27 01:18:32;;;;;;;1.77;0.80;;;23.60;54.40;;;;;;4508138;31;20080;-67
2022/07/27 01:21:00;;;;;;;0.90;0.47;;;23.60;54.40;;;;;;4508662;31;20065;-67
2022/07/27 01:23:27;;;;;;;1.10;0.40;;;23.60;55.40;;;;;;4508067;31;20076;-68
2022/07/27 01:25:53;;;;;;;1.00;0.60;;;23.60;54.50;;;;;;4508016;31;20147;-67
2022/07/27 01:28:20;;;;;;;1.88;0.60;;;23.50;54.40;;;;;;4508021;31;20395;-67
2022/07/27 01:30:46;;;;;;;1.85;0.63;;;23.50;54.50;;;;;;4507854;31;20122;-67
2022/07/27 01:33:12;;;;;;;0.88;0.40;;;23.50;54.40;;;;;;4507771;31;20116;-67
2022/07/27 01:35:39;;;;;;;1.75;0.60;;;23.60;54.50;;;;;;4508202;31;20098;-67
2022/07/27 01:38:07;;;;;;;1.02;0.50;;;23.50;54.50;;;;;;4507549;31;20280;-67
2022/07/27 01:40:35;;;;;;;1.50;0.40;;;23.60;54.60;;;;;;4507951;31;20060;-68
2022/07/27 01:43:02;;;;;;;1.85;0.60;;;23.50;54.50;;;;;;4507517;31;20073;-67
2022/07/27 01:45:28;;;;;;;1.17;0.45;;;23.50;54.50;;;;;;4507754;31;20509;-67
2022/07/27 01:47:54;;;;;;;1.08;0.35;;;23.50;54.50;;;;;;4507840;31;20057;-68
2022/07/27 01:50:20;;;;;;;2.90;0.60;;;23.50;54.50;;;;;;4507391;31;20140;-67
2022/07/27 01:52:45;;;;;;;1.48;0.55;;;23.50;54.60;;;;;;4507748;31;20080;-67
2022/07/27 01:55:12;;;;;;;1.95;0.50;;;23.50;54.60;;;;;;4507758;31;20137;-67
2022/07/27 01:57:38;;;;;;;1.90;0.45;;;23.50;54.60;;;;;;4507457;31;20296;-67
2022/07/27 02:00:07;;;;;;;1.10;0.50;;;23.50;54.60;;;;;;4507469;31;20157;-68
2022/07/27 02:02:33;;;;;;;1.30;0.35;;;23.50;54.50;;;;;;4507710;31;20073;-67
2022/07/27 02:04:59;;;;;;;1.50;0.60;;;23.50;54.60;;;;;;4507706;31;20417;-68
2022/07/27 02:07:25;;;;;;;1.23;0.40;;;23.50;54.60;;;;;;4508187;31;20069;-67
2022/07/27 02:09:51;;;;;;;1.35;0.45;;;23.50;54.60;;;;;;4507461;31;20398;-67
2022/07/27 02:12:35;;;;;;;1.77;0.75;;;23.50;54.60;;;;;;4507611;31;20175;-67
2022/07/27 02:15:11;;;;;;;1.17;0.68;;;23.40;54.50;;;;;;4507738;31;20065;-67
2022/07/27 02:17:37;;;;;;;1.15;0.40;;;23.40;54.60;;;;;;4507884;31;20446;-67
2022/07/27 02:20:04;;;;;;;1.48;0.40;;;23.40;54.60;;;;;;4507303;31;20418;-67
2022/07/27 02:22:30;;;;;;;0.95;0.40;;;23.40;54.60;;;;;;4507274;31;20080;-67
2022/07/27 02:24:56;;;;;;;0.88;0.35;;;23.50;54.60;;;;;;4507496;31;20155;-67
2022/07/27 02:27:22;;;;;;;1.00;0.47;;;23.40;54.60;;;;;;4507502;31;20149;-67
2022/07/27 02:29:48;;;;;;;1.95;0.60;;;23.40;54.60;;;;;;4507400;31;20231;-68
2022/07/27 02:32:14;;;;;;;0.80;0.30;;;23.40;54.60;;;;;;4507244;31;20057;-67
2022/07/27 02:34:40;;;;;;;1.35;0.57;;;23.40;54.60;;;;;;4507225;31;20371;-67
2022/07/27 02:37:07;;;;;;;1.13;0.45;;;23.40;54.60;;;;;;4507448;31;20099;-68
2022/07/27 02:39:32;;;;;;;1.50;0.38;;;23.40;54.60;;;;;;4507320;31;20091;-68
2022/07/27 02:41:58;;;;;;;1.48;0.60;;;23.40;54.70;;;;;;4507626;31;20065;-67
2022/07/27 02:44:24;;;;;;;0.95;0.40;;;23.40;54.70;;;;;;4507282;31;20079;-67
2022/07/27 02:46:50;;;;;;;1.42;0.52;;;23.40;54.70;;;;;;4507332;31;20629;-68
2022/07/27 02:49:16;;;;;;;1.88;0.50;;;23.40;54.70;;;;;;4493170;31;20088;-67
2022/07/27 02:51:42;;;;;;;0.85;0.30;;;23.40;54.70;;;;;;4507229;31;20165;-67
2022/07/27 02:54:08;;;;;;;1.60;0.43;;;23.40;54.70;;;;;;4507251;31;20210;-68
2022/07/27 02:56:33;;;;;;;1.27;0.63;;;23.40;54.80;;;;;;4507288;31;20642;-67
2022/07/27 02:58:59;;;;;;;1.13;0.40;;;23.40;54.80;;;;;;4509835;31;20069;-67
2022/07/27 03:01:25;;;;;;;1.52;0.50;;;23.40;54.80;;;;;;4509903;31;20541;-67
2022/07/27 03:03:51;;;;;;;1.05;0.35;;;23.40;54.80;;;;;;4509813;31;20084;-67
2022/07/27 03:06:17;;;;;;;2.38;0.63;;;23.40;54.80;;;;;;4510108;31;20112;-67
2022/07/27 03:08:43;;;;;;;1.05;0.52;;;23.30;54.80;;;;;;4509901;31;20086;-67
2022/07/27 03:11:09;;;;;;;1.75;0.45;;;23.40;54.80;;;;;;4495474;31;20081;-67
2022/07/27 03:13:34;;;;;;;2.67;0.40;;;23.30;54.80;;;;;;4509924;31;20091;-67
2022/07/27 03:16:00;;;;;;;1.48;0.65;;;23.30;54.80;;;;;;4509972;31;20061;-67
2022/07/27 03:18:26;;;;;;;1.23;0.30;;;23.30;54.80;;;;;;4509608;31;20112;-67
2022/07/27 03:20:52;;;;;;;1.67;0.40;;;23.30;54.80;;;;;;4510042;31;20146;-67
2022/07/27 03:23:18;;;;;;;0.75;0.40;;;23.30;54.80;;;;;;4510048;31;20203;-67
2022/07/27 03:25:44;;;;;;;1.38;0.50;;;23.30;54.80;;;;;;4510037;31;20092;-67
2022/07/27 03:28:09;;;;;;;1.35;0.30;;;23.30;54.80;;;;;;4509705;31;20091;-67
2022/07/27 03:30:35;;;;;;;1.25;0.40;;;23.30;54.80;;;;;;4509614;31;20069;-67
2022/07/27 03:33:01;;;;;;;1.50;0.30;;;23.30;54.80;;;;;;4509658;31;20142;-67
2022/07/27 03:35:27;;;;;;;0.60;0.30;;;23.30;54.90;;;;;;4509273;31;20510;-68
2022/07/27 03:37:54;;;;;;;0.65;0.38;;;23.30;54.90;;;;;;4509335;31;20080;-67
2022/07/27 03:40:20;;;;;;;1.25;0.40;;;23.30;54.90;;;;;;4509704;31;20075;-67
2022/07/27 03:42:46;;;;;;;1.25;0.57;;;23.30;54.90;;;;;;4509521;31;20227;-67
2022/07/27 03:45:11;;;;;;;0.50;0.20;;;23.30;54.90;;;;;;4509477;31;20083;-67
2022/07/27 03:47:37;;;;;;;1.05;0.45;;;23.30;55.00;;;;;;4509456;31;20126;-67
2022/07/27 03:50:04;;;;;;;1.13;0.50;;;23.30;54.90;;;;;;4509329;31;20397;-67
2022/07/27 03:52:29;;;;;;;1.13;0.30;;;23.30;54.90;;;;;;4509377;31;20518;-68
2022/07/27 03:54:56;;;;;;;1.00;0.40;;;23.30;54.90;;;;;;4509356;31;20069;-67
2022/07/27 03:57:23;;;;;;;1.23;0.32;;;23.30;54.90;;;;;;4509220;31;20084;-68
2022/07/27 03:59:49;;;;;;;0.80;0.30;;;23.30;55.00;;;;;;4509221;31;20217;-68
2022/07/27 04:02:14;;;;;;;1.02;0.38;;;23.20;54.90;;;;;;4509548;31;20601;-67
2022/07/27 04:04:40;;;;;;;1.23;0.40;;;23.20;54.90;;;;;;4509148;31;20084;-67
2022/07/27 04:07:06;;;;;;;1.15;0.50;;;23.30;55.00;;;;;;4494831;31;20084;-68
2022/07/27 04:09:33;;;;;;;0.55;0.30;;;23.30;55.00;;;;;;4508832;31;20088;-67
2022/07/27 04:11:59;;;;;;;1.25;0.40;;;23.20;54.90;;;;;;4508683;31;20092;-67
2022/07/27 04:14:25;;;;;;;0.98;0.30;;;23.20;54.90;;;;;;4508977;31;20077;-68
2022/07/27 04:16:51;;;;;;;1.67;0.60;;;23.20;54.90;;;;;;4508681;31;20076;-68
2022/07/27 04:19:16;;;;;;;0.98;0.30;;;23.20;54.90;;;;;;4508825;31;20072;-68
2022/07/27 04:21:42;;;;;;;1.25;0.50;;;23.20;54.90;;;;;;4508805;31;20077;-67
2022/07/27 04:24:08;;;;;;;0.95;0.43;;;23.20;55.00;;;;;;4494176;31;20084;-67
2022/07/27 04:26:34;;;;;;;0.85;0.30;;;23.20;55.00;;;;;;4508532;31;20068;-67
2022/07/27 04:29:00;;;;;;;1.23;0.30;;;23.20;55.00;;;;;;4509049;31;20112;-67
2022/07/27 04:31:26;;;;;;;1.27;0.55;;;23.20;55.10;;;;;;4508794;31;20219;-68
2022/07/27 04:33:51;;;;;;;1.08;0.57;;;23.20;55.10;;;;;;4508377;31;20068;-67
2022/07/27 04:36:17;;;;;;;1.00;0.32;;;23.20;55.10;;;;;;4481221;31;20115;-68
2022/07/27 04:38:44;;;;;;;0.70;0.40;;;23.20;55.10;;;;;;4494385;31;20219;-68
2022/07/27 04:41:10;;;;;;;1.48;0.40;;;23.20;55.10;;;;;;4508740;31;20204;-67
2022/07/27 04:43:35;;;;;;;0.98;0.30;;;23.10;55.10;;;;;;4508602;31;20402;-67
2022/07/27 04:46:05;;;;;;;0.63;0.30;;;23.10;55.10;;;;;;4508545;31;20517;-67
2022/07/27 04:48:32;;;;;;;0.93;0.40;;;23.20;55.20;;;;;;4508842;31;20218;-67
2022/07/27 04:50:58;;;;;;;1.42;0.35;;;23.10;55.10;;;;;;4508520;31;20096;-67
2022/07/27 04:53:24;;;;;;;1.08;0.30;;;23.10;55.10;;;;;;4508488;31;20081;-67
2022/07/27 04:55:50;;;;;;;0.82;0.30;;;23.10;55.10;;;;;;4508451;31;20281;-67
2022/07/27 04:58:16;;;;;;;1.45;0.43;;;23.10;55.10;;;;;;4508436;31;20076;-67
2022/07/27 05:00:42;;;;;;;1.13;0.45;;;23.10;55.20;;;;;;4508382;31;20485;-67
2022/07/27 05:03:09;;;;;;;0.88;0.47;;;23.10;55.20;;;;;;4494114;31;20104;-67
2022/07/27 05:05:34;;;;;;;1.25;0.43;;;23.10;55.30;;;;;;4508507;31;20088;-67
2022/07/27 05:08:01;;;;;;;1.15;0.40;;;23.10;55.20;;;;;;4508274;31;20398;-67
2022/07/27 05:10:27;;;;;;;0.63;0.35;;;23.10;55.30;;;;;;4508359;31;20088;-68
2022/07/27 05:12:52;;;;;;;0.65;0.35;;;23.10;55.30;;;;;;4508221;31;20069;-67
2022/07/27 05:15:19;;;;;;;0.93;0.22;;;23.10;55.30;;;;;;4508451;31;20084;-68
2022/07/27 05:17:45;;;;;;;0.80;0.30;;;23.10;55.30;;;;;;4508244;31;20069;-67
2022/07/27 05:20:11;;;;;;;0.35;0.20;;;23.10;55.30;;;;;;4507719;31;20130;-68
2022/07/27 05:22:37;;;;;;;0.75;0.38;;;23.10;55.30;;;;;;4508100;31;20205;-67
2022/07/27 05:25:03;;;;;;;0.45;0.30;;;23.10;55.30;;;;;;4508076;31;20088;-67
2022/07/27 05:27:29;;;;;;;2.00;0.43;;;23.10;55.30;;;;;;4508071;31;20084;-67
2022/07/27 05:29:55;;;;;;;0.95;0.40;;;23.10;55.30;;;;;;4508105;31;20060;-67
2022/07/27 05:32:21;;;;;;;1.30;0.40;;;23.10;55.30;;;;;;4507672;31;20496;-67
2022/07/27 05:34:46;;;;;;;1.30;0.50;;;23.10;55.30;;;;;;4507772;31;20061;-67
2022/07/27 05:37:12;;;;;;;1.35;0.50;;;23.10;55.20;;;;;;4508042;31;20108;-67
2022/07/27 05:39:41;;;;;;;1.67;0.30;;;23.10;55.20;;;;;;4508043;31;20210;-67
2022/07/27 05:42:10;;;;;;;1.30;0.45;;;23.10;55.30;;;;;;4507685;31;20219;-67
2022/07/27 05:44:35;;;;;;;2.25;0.40;;;23.10;55.20;;;;;;4508132;31;20081;-67
2022/07/27 05:47:01;;;;;;;1.20;0.45;;;23.10;55.10;;;;;;4493560;31;20084;-67
2022/07/27 05:49:27;;;;;;;1.00;0.40;;;23.20;55.20;;;;;;4507784;31;20115;-67
2022/07/27 05:51:53;;;;;;;0.35;0.20;;;23.10;55.10;;;;;;4507758;31;20566;-67
2022/07/27 05:54:19;;;;;;;1.40;0.40;;;23.20;55.10;;;;;;4507756;31;20080;-67
2022/07/27 05:56:45;;;;;;;1.20;0.30;;;23.20;55.30;;;;;;4507992;31;20520;-68
2022/07/27 05:59:11;;;;;;;1.23;0.38;;;23.20;55.00;;;;;;4507753;31;20214;-67
2022/07/27 06:01:37;;;;;;;1.83;0.40;;;23.20;55.00;;;;;;4493639;31;20080;-67
2022/07/27 06:04:04;;;;;;;0.80;0.35;;;23.20;55.00;;;;;;4507938;31;20409;-67
2022/07/27 06:09:15;;;;;;;0.82;0.30;;;23.20;55.00;;;;;;4507970;31;20123;-67
2022/07/27 06:11:42;;;;;;;1.65;0.52;;;23.20;55.00;;;;;;4507362;31;20085;-67
2022/07/27 06:14:08;;;;;;;1.05;0.30;;;23.20;55.00;;;;;;4507709;31;20259;-67
2022/07/27 06:16:34;;;;;;;1.65;0.40;;;23.20;55.10;;;;;;4507861;31;20126;-67
2022/07/27 06:18:59;;;;;;;1.13;0.38;;;23.20;55.10;;;;;;4507548;31;20073;-67
2022/07/27 06:21:27;;;;;;;0.50;0.22;;;23.20;55.10;;;;;;4507818;31;20076;-66
2022/07/27 06:23:56;;;;;;;2.90;0.40;;;23.30;55.10;;;;;;4507544;31;20529;-68
2022/07/27 06:26:22;;;;;;;2.33;0.60;;;23.30;55.10;;;;;;4507820;31;20467;-67
2022/07/27 06:28:48;;;;;;;1.83;0.60;;;23.30;55.00;;;;;;4507715;31;20113;-68
2022/07/27 06:31:14;;;;;;;2.25;0.57;;;23.40;54.90;;;;;;4507401;31;20068;-68
2022/07/27 06:33:40;;;;;;;2.47;0.60;;;23.40;54.70;;;;;;4509358;31;20088;-68
2022/07/27 06:36:07;;;;;;;4.85;0.50;;;23.40;54.60;;;;;;4510488;31;20134;-68
2022/07/27 06:38:33;;;;;;;3.05;0.77;;;23.40;54.60;;;;;;4510623;31;20204;-68
2022/07/27 06:41:00;;;;;;;2.17;0.55;;;23.50;54.60;;;;;;4510423;31;20085;-68
2022/07/27 06:43:30;;;;;;;4.43;0.80;;;23.50;54.50;;;;;;4510339;31;20084;-68
2022/07/27 06:45:59;;;;;;;3.55;0.73;;;23.50;54.40;;;;;;4510382;31;20605;-68
2022/07/27 06:48:25;;;;;;;4.70;0.80;;;23.50;54.30;;;;;;4510034;31;20077;-68
2022/07/27 06:50:52;;;;;;;2.97;0.88;;;23.50;54.20;;;;;;4495972;31;20391;-67
2022/07/27 06:53:18;;;;;;;3.47;0.80;;;23.50;54.10;;;;;;4510234;31;20117;-68
2022/07/27 06:55:44;;;;;;;6.05;1.13;;;23.50;54.00;;;;;;4509904;31;20099;-67
2022/07/27 06:58:11;;;;;;;4.97;1.05;;;23.50;53.90;;;;;;4510157;31;20085;-67
2022/07/27 07:00:38;;;;;;;4.75;0.95;;;23.50;53.70;;;;;;4509878;31;20069;-67
2022/07/27 07:03:05;;;;;;;4.55;1.20;;;23.50;53.80;;;;;;4510067;31;20398;-67
2022/07/27 07:05:33;;;;;;;4.32;0.98;;;23.50;54.00;;;;;;4510014;31;20096;-67
2022/07/27 07:08:00;;;;;;;7.88;1.20;;;23.40;54.00;;;;;;4509957;31;20092;-67
2022/07/27 07:10:27;;;;;;;7.95;1.40;;;23.40;54.00;;;;;;4509798;31;20161;-66
2022/07/27 07:12:56;;;;;;;5.57;1.27;;;23.40;54.10;;;;;;4509941;31;20139;-67
2022/07/27 07:15:24;;;;;;;5.30;1.55;;;23.40;54.20;;;;;;4509935;31;20088;-66
2022/07/27 07:17:50;;;;;;;7.22;1.60;;;23.40;54.30;;;;;;4509691;31;20077;-65
2022/07/27 07:20:15;;;;;;;3.33;1.00;;;23.30;54.40;;;;;;4510015;31;20547;-67
2022/07/27 07:22:42;;;;;;;9.48;1.52;;;23.40;54.60;;;;;;4509700;31;20065;-66
2022/07/27 07:25:08;;;;;;;4.75;0.90;;;23.30;54.60;;;;;;4509420;31;20117;-66
2022/07/27 07:27:34;;;;;;;7.25;1.20;;;23.30;54.70;;;;;;4509627;31;20095;-66
2022/07/27 07:30:01;;;;;;;6.05;1.00;;;23.30;54.80;;;;;;4495121;31;20073;-66
2022/07/27 07:32:27;;;;;;;5.47;1.00;;;23.30;54.90;;;;;;4495554;31;20084;-67
2022/07/27 07:34:54;;;;;;;4.32;0.95;;;23.30;54.90;;;;;;4509143;31;20478;-66
2022/07/27 07:37:21;;;;;;;4.32;1.10;;;23.30;55.00;;;;;;4495571;31;20532;-66
2022/07/27 07:39:47;;;;;;;6.45;1.48;;;23.20;55.00;;;;;;4509172;31;20169;-66
2022/07/27 07:42:13;;;;;;;4.30;1.33;;;23.20;55.10;;;;;;4509549;31;20088;-66
2022/07/27 07:44:40;;;;;;;3.90;1.00;;;23.20;55.10;;;;;;4509094;31;20083;-66
2022/07/27 07:47:06;;;;;;;5.85;1.30;;;23.20;55.20;;;;;;4509162;31;20080;-66
2022/07/27 07:49:32;;;;;;;2.95;0.95;;;23.20;55.20;;;;;;4509434;31;20398;-66
2022/07/27 07:51:57;;;;;;;2.88;0.90;;;23.20;55.20;;;;;;4509077;31;20072;-66
2022/07/27 07:54:23;;;;;;;4.75;1.15;;;23.20;55.10;;;;;;4509375;31;20134;-65
2022/07/27 07:56:49;;;;;;;4.25;1.27;;;23.20;55.00;;;;;;4495081;31;20124;-66
2022/07/27 07:59:15;;;;;;;4.85;1.10;;;23.10;54.80;;;;;;4509305;31;20081;-65
2022/07/27 08:01:41;;;;;;;5.57;1.25;;;23.10;54.70;;;;;;4509235;31;20202;-66
2022/07/27 08:04:07;;;;;;;7.10;1.15;;;23.10;54.80;;;;;;4509298;31;20091;-66
2022/07/27 08:06:33;;;;;;;6.80;1.23;;;23.10;54.60;;;;;;4509220;31;20258;-65
2022/07/27 08:08:59;;;;;;;4.60;1.10;;;23.10;54.70;;;;;;4508809;31;20594;-65
2022/07/27 08:11:26;;;;;;;6.20;1.23;;;23.10;54.60;;;;;;4509054;31;20174;-65
2022/07/27 08:13:51;;;;;;;3.17;1.05;;;23.10;54.50;;;;;;4508879;31;20165;-65
2022/07/27 08:16:17;;;;;;;3.65;0.73;;;23.10;54.50;;;;;;4509298;31;20081;-66
2022/07/27 08:18:43;;;;;;;2.90;0.98;;;23.10;54.50;;;;;;4508717;31;20081;-65
2022/07/27 08:21:09;;;;;;;9.90;1.23;;;23.20;54.60;;;;;;4509131;31;20065;-65
2022/07/27 08:23:38;;;;;;;9.75;1.00;;;23.10;54.70;;;;;;4509038;31;20113;-65
2022/07/27 08:26:04;;;;;;;8.60;1.20;;;23.20;54.90;;;;;;4508800;31;20088;-66
2022/07/27 08:28:31;;;;;;;8.15;1.17;;;23.20;54.90;;;;;;4508712;31;20486;-66
2022/07/27 08:30:57;;;;;;;4.95;1.15;;;23.20;54.90;;;;;;4509041;31;20086;-66
2022/07/27 08:33:23;;;;;;;5.10;1.00;;;23.20;54.90;;;;;;4508703;31;20398;-65
2022/07/27 08:35:49;;;;;;;4.63;0.90;;;23.20;54.90;;;;;;4494094;31;20117;-66
2022/07/27 08:38:15;;;;;;;3.78;1.13;;;23.20;54.90;;;;;;4494431;31;20061;-66
2022/07/27 08:40:41;;;;;;;5.80;1.00;;;23.20;54.90;;;;;;4494225;31;20402;-66
2022/07/27 08:43:08;;;;;;;3.13;1.13;;;23.20;54.90;;;;;;4494550;31;20139;-66
2022/07/27 08:45:36;;;;;;;7.47;1.27;;;23.20;55.00;;;;;;4508556;31;20060;-67
2022/07/27 08:48:02;;;;;;;3.80;1.17;;;23.20;55.00;;;;;;4508830;31;20229;-66
2022/07/27 08:50:29;;;;;;;1.52;0.60;;;23.20;55.00;;;;;;4508528;31;20091;-66
2022/07/27 08:53:07;;;;;;;4.80;1.15;;;23.30;55.10;;;;;;4508492;31;20219;-66
2022/07/27 08:55:38;;;;;;;2.40;0.90;;;23.30;55.10;;;;;;4493598;31;20072;-67
2022/07/27 08:58:05;;;;;;;3.55;1.08;;;23.30;55.00;;;;;;4508694;31;20087;-66
2022/07/27 09:00:33;;;;;;;2.53;1.00;;;23.30;55.00;;;;;;4508645;31;20087;-66
2022/07/27 09:02:59;;;;;;;3.40;0.98;;;23.30;55.10;;;;;;4508641;31;20442;-66
2022/07/27 09:05:26;;;;;;;7.10;1.00;;;23.30;55.10;;;;;;4508610;31;20488;-66
2022/07/27 09:07:52;;;;;;;3.58;0.85;;;23.30;55.10;;;;;;4508041;31;20085;-66
2022/07/27 09:10:33;;;;;;;3.35;1.02;;;23.30;55.10;;;;;;4493908;31;20746;-66
2022/07/27 09:13:14;;;;;;;3.58;0.90;;;23.30;55.10;;;;;;4508384;31;20442;-66
2022/07/27 09:15:45;;;;;;;3.38;1.00;;;23.30;55.10;;;;;;4508193;31;20092;-66
2022/07/27 09:18:22;;;;;;;4.53;0.88;;;23.30;55.10;;;;;;4508523;31;20064;-66
2022/07/27 09:21:09;;;;;;;2.35;0.75;;;23.30;55.10;;;;;;4508456;31;20120;-66
2022/07/27 09:23:35;;;;;;;4.55;1.00;;;23.40;55.10;;;;;;4508093;31;20177;-67
2022/07/27 09:26:21;;;;;;;3.53;1.00;;;23.40;55.10;;;;;;4508026;31;20136;-66
2022/07/27 09:29:00;;;;;;;4.88;1.10;;;23.40;55.10;;;;;;4508052;31;20502;-67
2022/07/27 09:31:26;;;;;;;1.95;0.73;;;23.40;55.10;;;;;;4508089;31;20061;-66
2022/07/27 09:33:54;;;;;;;2.83;0.70;;;23.40;55.10;;;;;;4507863;31;20165;-66
2022/07/27 09:36:22;;;;;;;2.05;0.95;;;23.40;55.20;;;;;;4507764;31;20076;-66
2022/07/27 09:38:55;;;;;;;4.28;1.17;;;23.40;55.20;;;;;;4507842;31;20655;-66
2022/07/27 09:41:22;;;;;;;1.63;0.65;;;23.40;55.20;;;;;;4507704;31;20226;-67
2022/07/27 09:43:54;;;;;;;3.00;1.17;;;23.40;55.20;;;;;;4508146;31;20151;-66
2022/07/27 09:46:33;;;;;;;1.95;0.70;;;23.40;55.20;;;;;;4507926;31;20269;-66
2022/07/27 09:49:00;;;;;;;3.10;0.93;;;23.40;55.30;;;;;;4508230;31;20219;-66
2022/07/27 09:51:26;;;;;;;5.35;0.80;;;23.40;55.20;;;;;;4507839;31;20532;-67
2022/07/27 09:53:56;;;;;;;4.22;0.85;;;23.50;55.20;;;;;;4507787;31;20422;-66
2022/07/27 09:56:30;;;;;;;3.70;1.00;;;23.50;55.20;;;;;;4507751;31;20533;-66
2022/07/27 09:59:00;;;;;;;;;;;23.50;55.10;;;;;;4508757;31;20087;-66
2022/07/27 10:01:31;;;;;;;3.35;0.80;;;23.50;56.10;;;;;;4507721;31;19969;-66
2022/07/27 10:04:03;;;;;;;4.07;0.80;;;23.50;55.20;;;;;;4507796;31;20064;-66
2022/07/27 10:06:29;;;;;;;1.88;0.70;;;23.50;55.10;;;;;;4508423;31;20135;-66
2022/07/27 10:08:57;;;;;;;3.17;0.80;;;23.50;55.10;;;;;;4510619;31;20091;-66
2022/07/27 10:11:23;;;;;;;2.90;0.88;;;23.50;55.10;;;;;;4510961;31;20072;-66
2022/07/27 10:13:51;;;;;;;3.35;0.77;;;23.50;55.10;;;;;;4510861;31;20089;-66
2022/07/27 10:16:23;;;;;;;3.80;0.80;;;23.50;55.20;;;;;;4511139;31;20210;-66
2022/07/27 10:19:11;;;;;;;2.20;0.75;;;23.50;55.10;;;;;;4511208;31;20691;-67
2022/07/27 10:21:39;;;;;;;1.90;0.70;;;23.50;55.10;;;;;;4510915;31;20149;-66
2022/07/27 10:24:30;;;;;;;2.08;0.68;;;23.50;55.10;;;;;;4510797;31;20486;-66
2022/07/27 10:26:57;;;;;;;3.13;0.70;;;23.50;55.10;;;;;;4511080;31;20150;-67
2022/07/27 10:29:24;;;;;;;1.70;0.60;;;23.50;55.10;;;;;;4510592;31;20081;-66
2022/07/27 10:31:53;;;;;;;4.07;0.77;;;23.50;55.10;;;;;;4510305;31;20498;-66
2022/07/27 10:34:39;;;;;;;2.85;0.60;;;23.50;55.00;;;;;;4510120;31;20092;-66
2022/07/27 10:37:13;;;;;;;2.33;0.80;;;23.50;55.00;;;;;;4510587;31;20088;-66
2022/07/27 10:39:43;;;;;;;;;;;23.50;55.00;;;;;;4511649;31;20164;-66
2022/07/27 10:42:29;;;;;;;1.23;0.70;;;23.50;54.90;;;;;;4510500;31;20020;-66
2022/07/27 10:45:06;;;;;;;2.40;0.70;;;23.50;54.90;;;;;;4510439;31;20214;-66
2022/07/27 10:47:44;;;;;;;1.52;0.50;;;23.50;54.90;;;;;;4510256;31;20171;-66
2022/07/27 10:50:16;;;;;;;2.25;0.60;;;23.50;54.80;;;;;;4510501;31;20195;-66
2022/07/27 10:52:51;;;;;;;1.48;0.63;;;23.60;54.90;;;;;;4510496;31;20406;-66
2022/07/27 10:55:29;;;;;;;2.70;0.88;;;23.50;54.80;;;;;;4510398;31;20076;-66
2022/07/27 10:58:14;;;;;;;2.15;0.80;;;23.50;54.80;;;;;;4510272;31;20142;-67
2022/07/27 11:00:50;;;;;;;2.35;0.80;;;23.50;54.80;;;;;;4509819;31;20091;-67
2022/07/27 11:03:23;;;;;;;2.33;0.80;;;23.60;54.90;;;;;;4510428;31;20068;-66
2022/07/27 11:06:06;;;;;;;2.17;0.70;;;23.60;54.90;;;;;;4509885;31;20329;-67
2022/07/27 11:08:33;;;;;;;2.78;0.70;;;23.60;54.80;;;;;;4510507;31;20124;-66
2022/07/27 11:11:00;;;;;;;2.45;0.70;;;23.50;54.80;;;;;;4510205;31;20104;-67
2022/07/27 11:13:27;;;;;;;1.20;0.50;;;23.60;54.80;;;;;;4510064;31;20093;-67
2022/07/27 11:15:55;;;;;;;2.08;0.60;;;23.60;54.80;;;;;;4510291;31;20602;-66
2022/07/27 11:18:29;;;;;;;2.40;0.63;;;23.50;54.70;;;;;;4509196;31;20539;-66
2022/07/27 11:21:26;;;;;;;1.58;0.63;;;23.50;54.70;;;;;;4510350;31;20092;-66
2022/07/27 11:23:55;;;;;;;4.57;0.88;;;23.50;54.70;;;;;;4510179;31;20509;-66
2022/07/27 11:26:23;;;;;;;2.25;0.77;;;23.50;54.80;;;;;;4495729;31;20085;-66
2022/07/27 11:28:51;;;;;;;2.47;0.70;;;23.50;54.70;;;;;;4509831;31;20128;-67
2022/07/27 11:31:17;;;;;;;1.33;0.47;;;23.60;54.80;;;;;;4495591;31;20108;-66
2022/07/27 11:33:51;;;;;;;1.65;0.63;;;23.60;54.80;;;;;;4509764;31;20076;-66
2022/07/27 11:36:17;;;;;;;3.00;0.60;;;23.50;54.70;;;;;;4495303;31;20080;-65
2022/07/27 11:38:51;;;;;;;3.00;0.80;;;23.60;54.80;;;;;;4509314;31;20065;-66
2022/07/27 11:41:28;;;;;;;2.72;1.02;;;23.60;54.80;;;;;;4509690;31;20069;-66
2022/07/27 11:43:59;;;;;;;1.73;0.50;;;23.60;54.80;;;;;;4509678;31;20153;-67
2022/07/27 11:46:31;;;;;;;2.22;0.80;;;23.60;54.90;;;;;;4509668;31;20072;-67
2022/07/27 11:48:58;;;;;;;1.85;0.60;;;23.60;54.90;;;;;;4509604;31;20533;-66
2022/07/27 11:51:25;;;;;;;4.20;0.88;;;23.60;54.90;;;;;;4509400;31;20583;-66
2022/07/27 11:54:08;;;;;;;3.17;0.85;;;23.60;54.80;;;;;;4509437;31;20166;-66
2022/07/27 11:56:37;;;;;;;2.55;0.60;;;23.60;54.80;;;;;;4509492;31;20091;-66
2022/07/27 11:59:09;;;;;;;3.17;0.93;;;23.60;54.90;;;;;;4509589;31;20089;-66
2022/07/27 12:01:48;;;;;;;2.67;1.10;;;23.60;54.90;;;;;;4509475;31;20061;-66
2022/07/27 12:04:18;;;;;;;2.13;0.65;;;23.60;54.80;;;;;;4509635;31;20095;-66
2022/07/27 12:07:05;;;;;;;2.03;0.70;;;23.60;54.80;;;;;;4509262;31;20093;-67
2022/07/27 12:09:37;;;;;;;1.17;0.60;;;23.60;54.80;;;;;;4500266;31;20088;-67
2022/07/27 12:12:16;;;;;;;2.95;0.70;;;23.60;54.80;;;;;;4509422;31;20077;-68
2022/07/27 12:14:49;;;;;;;2.17;0.75;;;23.60;54.80;;;;;;4509150;31;20534;-66
2022/07/27 12:17:28;;;;;;;2.25;0.65;;;23.60;54.80;;;;;;4494874;31;20548;-67
2022/07/27 12:19:56;;;;;;;2.13;0.80;;;23.60;54.80;;;;;;4509122;31;20072;-67
2022/07/27 12:22:27;;;;;;;2.83;0.50;;;23.60;54.80;;;;;;4508981;31;20107;-67
2022/07/27 12:24:54;;;;;;;2.63;0.70;;;23.60;54.80;;;;;;4509319;31;20107;-67
2022/07/27 12:27:25;;;;;;;2.03;0.40;;;23.60;54.80;;;;;;4508935;31;20120;-66
2022/07/27 12:30:11;;;;;;;2.47;0.80;;;23.60;54.80;;;;;;4508951;31;20073;-66
2022/07/27 12:32:41;;;;;;;2.30;0.60;;;23.60;54.80;;;;;;4508509;31;20139;-66
2022/07/27 12:35:19;;;;;;;2.13;0.50;;;23.60;54.80;;;;;;4508199;31;20461;-66
2022/07/27 12:37:45;;;;;;;2.30;0.75;;;23.60;54.70;;;;;;4508848;31;20080;-67
2022/07/27 12:40:17;;;;;;;2.45;0.70;;;23.70;54.70;;;;;;4508703;31;20069;-66
2022/07/27 12:42:44;;;;;;;1.95;0.60;;;23.70;54.70;;;;;;4494089;31;20139;-67
2022/07/27 12:45:16;;;;;;;1.85;0.80;;;23.70;54.80;;;;;;4494120;31;20197;-67
2022/07/27 12:47:44;;;;;;;3.03;0.98;;;23.70;54.80;;;;;;4508698;31;20218;-66
2022/07/27 12:50:15;;;;;;;4.45;0.80;;;23.70;54.80;;;;;;4508634;31;20099;-66
2022/07/27 12:52:47;;;;;;;1.95;0.65;;;23.70;54.80;;;;;;4508476;31;20080;-66
2022/07/27 12:55:13;;;;;;;1.52;0.55;;;23.70;54.80;;;;;;4508602;31;20068;-66
2022/07/27 12:57:40;;;;;;;1.95;0.65;;;23.70;54.80;;;;;;4508708;31;20112;-68